Terminal Aerodrome Forecast
Issued by NWS

Current Version | Previous Version | Text Only | Print | Product List | Glossary On
Versions: 1 2 3 4 5 6 7 8 9 10 11 12 13 14 15 16 17 18 19 20 21
000
FTUS41 KBGM 220540
TAFELM
TAF
KELM 220540Z 2206/2306 02006KT P6SM OVC080
     FM221200 03004KT P6SM BKN025 OVC050
     FM221300 02004KT 2SM -SNPL OVC015
     FM221700 05004KT 2SM -SN OVC012
     FM222200 06004KT P6SM OVC015=

USA.gov is the U.S. government's official web portal to all federal, state and local government web resources and services.